Time;durP1;ratioP1;P1;durP2;ratioP2;P2;SDS_P1;SDS_P2;PMS_P1;PMS_P2;Temp;Humidity;BMP_temperature;BMP_pressure;BME280_temperature;BME280_humidity;BME280_pressure;Samples;Min_cycle;Max_cycle;Signal;HPM_P1;HPM_P2
2022/11/30 00:00:21;;;;;;;29.38;16.70;;;10.80;60.90;;;;;;4939662;29;20055;-89
2022/11/30 00:02:48;;;;;;;30.27;16.90;;;11.00;59.00;;;;;;4939676;29;20023;-88
2022/11/30 00:05:14;;;;;;;27.60;16.02;;;11.00;59.40;;;;;;4939367;29;20024;-88
2022/11/30 00:07:40;;;;;;;29.65;16.70;;;11.20;59.10;;;;;;4939355;29;20109;-88
2022/11/30 00:10:06;;;;;;;26.88;17.05;;;11.40;59.10;;;;;;4936464;29;20135;-89
2022/11/30 00:12:32;;;;;;;25.35;15.30;;;11.80;58.30;;;;;;4935991;29;20079;-90
2022/11/30 00:14:58;;;;;;;24.38;14.73;;;11.70;57.40;;;;;;4936185;29;20033;-88
2022/11/30 00:17:26;;;;;;;28.45;15.63;;;11.40;58.40;;;;;;4935998;29;20026;-88
2022/11/30 00:19:52;;;;;;;25.75;15.77;;;11.60;57.80;;;;;;4938978;29;20113;-88
2022/11/30 00:22:17;;;;;;;26.80;15.50;;;11.60;57.90;;;;;;4938859;29;20110;-88
2022/11/30 00:24:43;;;;;;;26.80;14.65;;;11.60;58.10;;;;;;4938975;29;20086;-89
2022/11/30 00:27:09;;;;;;;26.35;14.23;;;11.40;58.10;;;;;;4939412;29;20462;-89
2022/11/30 00:29:35;;;;;;;24.40;14.88;;;11.20;59.00;;;;;;4938634;29;20137;-88
2022/11/30 00:32:00;;;;;;;27.83;16.08;;;11.00;59.10;;;;;;4938920;29;20087;-88
2022/11/30 00:34:37;;;;;;;26.15;14.90;;;10.90;59.60;;;;;;4938369;29;20024;-89
2022/11/30 00:37:03;;;;;;;29.60;15.82;;;11.30;58.70;;;;;;4938856;29;20031;-88
2022/11/30 00:39:29;;;;;;;26.83;16.08;;;11.70;58.00;;;;;;4935902;29;20034;-88
2022/11/30 00:41:55;;;;;;;25.23;14.68;;;11.40;57.80;;;;;;4938838;29;20106;-89
2022/11/30 00:44:20;;;;;;;25.17;14.45;;;11.00;58.60;;;;;;4938891;29;20454;-87
2022/11/30 00:46:46;;;;;;;25.35;14.88;;;11.10;59.10;;;;;;4938743;28;20036;-88
2022/11/30 00:49:11;;;;;;;25.13;14.63;;;10.80;59.10;;;;;;4938922;29;20041;-87
2022/11/30 00:51:38;;;;;;;24.73;14.73;;;11.00;58.80;;;;;;4938508;29;20169;-88
2022/11/30 00:54:03;;;;;;;28.13;15.57;;;11.20;57.90;;;;;;4938974;29;20455;-88
2022/11/30 00:56:29;;;;;;;25.10;14.77;;;11.40;57.80;;;;;;4938887;29;20039;-88
2022/11/30 00:58:54;;;;;;;24.60;14.43;;;11.40;57.50;;;;;;4939877;29;20023;-87
2022/11/30 01:01:20;;;;;;;27.42;15.52;;;11.40;57.90;;;;;;4938348;29;20025;-89
2022/11/30 01:03:46;;;;;;;24.58;15.38;;;11.20;58.10;;;;;;4938687;29;20154;-87
2022/11/30 01:06:12;;;;;;;31.00;17.40;;;11.20;58.70;;;;;;4938860;29;20023;-88
2022/11/30 01:08:38;;;;;;;22.30;13.70;;;11.50;57.90;;;;;;4933424;29;20034;-87
2022/11/30 01:11:24;;;;;;;24.20;14.43;;;11.40;58.10;;;;;;4936028;29;20033;-92
2022/11/30 01:13:51;;;;;;;23.83;14.65;;;11.60;57.40;;;;;;4935457;29;20160;-88
2022/11/30 01:16:19;;;;;;;25.25;14.30;;;11.90;56.80;;;;;;4935727;29;20046;-87
2022/11/30 01:18:46;;;;;;;26.05;14.07;;;12.00;56.80;;;;;;4940818;29;20030;-88
2022/11/30 01:21:15;;;;;;;23.50;13.40;;;11.80;56.90;;;;;;4938395;29;20030;-88
2022/11/30 01:23:41;;;;;;;25.92;14.75;;;11.60;56.90;;;;;;4938827;29;20020;-87
2022/11/30 01:26:07;;;;;;;24.67;14.95;;;11.50;57.60;;;;;;4938969;29;20027;-88
2022/11/30 01:28:35;;;;;;;23.95;13.35;;;11.70;57.10;;;;;;4938056;29;20051;-87
2022/11/30 01:31:05;;;;;;;24.13;13.60;;;11.90;56.50;;;;;;4938412;29;20030;-88
2022/11/30 01:33:31;;;;;;;23.48;14.57;;;12.10;56.20;;;;;;4938344;29;20034;-88
2022/11/30 01:36:13;;;;;;;24.10;13.73;;;12.10;56.30;;;;;;4938415;29;20035;-88
2022/11/30 01:38:44;;;;;;;21.60;11.98;;;12.20;56.20;;;;;;4938318;29;20406;-88
2022/11/30 01:41:12;;;;;;;23.08;13.43;;;12.10;55.80;;;;;;4938365;29;20074;-89
2022/11/30 01:43:43;;;;;;;24.05;14.55;;;11.40;57.40;;;;;;4937970;29;20028;-88
2022/11/30 01:46:28;;;;;;;23.73;13.48;;;11.40;57.80;;;;;;4938926;29;20031;-86
2022/11/30 01:49:04;;;;;;;23.33;13.52;;;11.80;56.90;;;;;;4922606;29;20479;-88
2022/11/30 01:51:53;;;;;;;25.38;14.38;;;12.10;56.30;;;;;;4923307;29;20055;-87
2022/11/30 01:54:24;;;;;;;20.33;11.65;;;12.00;56.40;;;;;;4937527;29;20038;-88
2022/11/30 01:56:52;;;;;;;;;;;12.00;55.40;;;;;;4942332;29;20389;-91
2022/11/30 01:59:20;;;;;;;23.42;12.52;;;12.20;55.60;;;;;;4941536;29;19906;-87
2022/11/30 02:01:46;;;;;;;22.42;12.82;;;12.30;55.90;;;;;;4942215;29;20058;-87
2022/11/30 02:04:30;;;;;;;18.83;11.73;;;12.50;55.80;;;;;;4941648;29;20054;-88
2022/11/30 02:06:57;;;;;;;18.65;11.45;;;12.60;55.20;;;;;;4941417;29;20059;-87
2022/11/30 02:09:24;;;;;;;19.45;11.18;;;12.70;55.10;;;;;;4941756;29;20541;-89
2022/11/30 02:11:50;;;;;;;18.38;11.38;;;12.60;54.50;;;;;;4941442;29;20023;-89
2022/11/30 02:14:32;;;;;;;21.13;11.32;;;12.60;55.20;;;;;;4941357;29;20030;-88
2022/11/30 02:17:24;;;;;;;18.13;10.75;;;12.70;55.00;;;;;;4941257;29;20035;-90
2022/11/30 02:20:20;;;;;;;16.27;10.13;;;12.80;54.40;;;;;;4941195;29;20030;-88
2022/11/30 02:22:57;;;;;;;18.85;11.68;;;12.70;54.80;;;;;;4940912;29;20455;-88
2022/11/30 02:25:46;;;;;;;19.95;11.93;;;12.50;55.40;;;;;;4941074;29;20023;-88
2022/11/30 02:28:36;;;;;;;17.33;10.38;;;12.50;54.90;;;;;;4940776;29;20083;-88
2022/11/30 02:31:05;;;;;;;18.23;10.35;;;12.10;55.70;;;;;;4923555;29;20062;-88
2022/11/30 02:33:33;;;;;;;16.92;10.68;;;12.00;55.70;;;;;;4937939;29;20122;-89
2022/11/30 02:36:01;;;;;;;17.73;11.02;;;12.20;55.40;;;;;;4937748;29;20058;-87
2022/11/30 02:38:28;;;;;;;17.00;10.27;;;12.30;55.00;;;;;;4937794;29;20020;-88
2022/11/30 02:40:54;;;;;;;19.08;10.35;;;12.30;55.20;;;;;;4947375;29;20027;-87
2022/11/30 02:43:23;;;;;;;16.10;10.23;;;12.50;55.00;;;;;;4940825;29;20019;-87
2022/11/30 02:46:04;;;;;;;17.77;10.32;;;12.50;54.80;;;;;;4940825;29;20466;-88
2022/11/30 02:48:51;;;;;;;16.90;10.25;;;12.30;55.20;;;;;;4940503;29;20027;-87
2022/11/30 02:51:21;;;;;;;21.40;10.90;;;12.20;55.20;;;;;;4940361;29;20059;-88
2022/11/30 02:53:47;;;;;;;19.73;10.85;;;12.10;55.40;;;;;;4940536;29;20050;-88
2022/11/30 02:56:12;;;;;;;21.33;10.73;;;12.00;55.80;;;;;;4940866;29;20387;-87
2022/11/30 02:58:39;;;;;;;17.60;10.23;;;11.80;55.70;;;;;;4939469;29;20038;-88
2022/11/30 03:01:05;;;;;;;19.13;10.18;;;11.30;56.60;;;;;;4940351;29;20054;-88
2022/11/30 03:03:30;;;;;;;18.02;10.55;;;11.00;57.40;;;;;;4940445;29;20117;-87
2022/11/30 03:05:56;;;;;;;18.27;10.45;;;10.90;57.00;;;;;;4940296;29;20374;-88
2022/11/30 03:08:22;;;;;;;19.27;10.07;;;10.80;57.80;;;;;;4940216;29;20023;-87
2022/11/30 03:10:47;;;;;;;17.65;10.13;;;11.10;57.30;;;;;;4940053;29;20027;-88
2022/11/30 03:13:13;;;;;;;16.63;10.05;;;11.20;57.20;;;;;;4940001;29;20063;-87
2022/11/30 03:15:39;;;;;;;18.60;10.70;;;11.40;57.40;;;;;;4940143;29;20023;-87
2022/11/30 03:18:04;;;;;;;19.38;10.85;;;11.70;56.60;;;;;;4940508;29;20050;-87
2022/11/30 03:20:31;;;;;;;17.15;11.05;;;11.90;56.20;;;;;;4940339;29;20042;-88
2022/11/30 03:23:01;;;;;;;16.08;9.82;;;11.80;56.40;;;;;;4940339;29;20135;-88
2022/11/30 03:25:28;;;;;;;16.08;9.27;;;11.70;55.40;;;;;;4940003;29;20054;-87
2022/11/30 03:27:54;;;;;;;16.83;9.35;;;11.30;56.30;;;;;;4940352;28;20037;-87
2022/11/30 03:30:19;;;;;;;15.32;9.02;;;11.20;56.20;;;;;;4939429;29;20035;-87
2022/11/30 03:32:45;;;;;;;16.42;10.00;;;11.30;55.60;;;;;;4940012;29;20486;-87
2022/11/30 03:35:11;;;;;;;17.48;10.32;;;11.00;56.00;;;;;;4939780;29;20027;-88
2022/11/30 03:37:36;;;;;;;14.85;9.38;;;10.70;56.80;;;;;;4939782;29;20082;-88
2022/11/30 03:40:05;;;;;;;14.90;9.25;;;10.60;56.40;;;;;;4939879;29;20026;-89
2022/11/30 03:42:31;;;;;;;19.02;10.02;;;10.80;56.90;;;;;;4939548;29;20058;-91
2022/11/30 03:44:56;;;;;;;17.13;9.63;;;11.30;56.30;;;;;;4939750;29;20058;-87
2022/11/30 03:47:23;;;;;;;17.38;10.35;;;11.60;55.10;;;;;;4939377;29;20034;-87
2022/11/30 03:49:49;;;;;;;15.50;9.25;;;11.60;55.10;;;;;;4923368;29;20035;-86
2022/11/30 03:52:14;;;;;;;15.85;9.52;;;11.80;55.10;;;;;;4930616;29;20418;-87
2022/11/30 03:54:40;;;;;;;15.70;9.40;;;12.10;54.40;;;;;;4939772;29;20041;-87
2022/11/30 03:57:06;;;;;;;16.42;9.70;;;12.40;53.90;;;;;;4935276;29;20036;-86
2022/11/30 03:59:31;;;;;;;15.55;9.50;;;12.50;54.70;;;;;;4931545;29;20035;-87
2022/11/30 04:01:59;;;;;;;15.45;9.20;;;12.50;54.30;;;;;;4920857;29;20028;-87
2022/11/30 04:04:24;;;;;;;13.60;9.07;;;12.40;53.90;;;;;;4920371;29;20031;-87
2022/11/30 04:06:50;;;;;;;15.90;9.90;;;12.10;53.60;;;;;;4920260;29;20078;-87
2022/11/30 04:09:15;;;;;;;17.33;9.32;;;11.50;54.70;;;;;;4932559;29;20070;-86
2022/11/30 04:11:41;;;;;;;14.48;8.88;;;10.80;57.00;;;;;;4939029;29;20097;-88
2022/11/30 04:14:07;;;;;;;14.52;8.25;;;11.10;56.60;;;;;;4938864;29;20046;-87
2022/11/30 04:16:32;;;;;;;15.43;9.27;;;11.20;56.20;;;;;;4939232;29;20047;-85
2022/11/30 04:18:58;;;;;;;14.02;9.05;;;10.20;57.60;;;;;;4939161;29;20030;-86
2022/11/30 04:21:24;;;;;;;14.20;8.13;;;10.30;56.20;;;;;;4938970;29;20029;-87
2022/11/30 04:23:50;;;;;;;13.98;8.27;;;10.20;56.30;;;;;;4938818;29;20338;-86
2022/11/30 04:26:16;;;;;;;14.55;8.55;;;9.60;57.80;;;;;;4939128;29;20023;-85
2022/11/30 04:28:42;;;;;;;14.40;8.40;;;9.90;57.20;;;;;;4938816;29;20406;-86
2022/11/30 04:31:09;;;;;;;14.73;8.68;;;10.10;56.60;;;;;;4938526;29;20035;-86
2022/11/30 04:33:34;;;;;;;15.88;9.68;;;10.80;57.10;;;;;;4938999;29;20456;-88
2022/11/30 04:36:03;;;;;;;15.77;9.60;;;11.50;56.00;;;;;;4938796;29;20029;-86
2022/11/30 04:38:30;;;;;;;17.10;10.75;;;11.90;53.90;;;;;;4938952;29;20031;-87
2022/11/30 04:40:56;;;;;;;17.85;10.93;;;12.00;54.50;;;;;;4939121;29;20047;-86
2022/11/30 04:43:22;;;;;;;15.65;9.23;;;12.20;54.50;;;;;;4939019;29;20443;-87
2022/11/30 04:45:48;;;;;;;17.52;10.05;;;12.30;53.20;;;;;;4939344;29;20058;-87
2022/11/30 04:48:21;;;;;;;15.77;9.60;;;12.60;53.30;;;;;;4938807;29;20441;-87
2022/11/30 04:50:47;;;;;;;13.57;7.47;;;12.70;53.60;;;;;;4938835;29;20023;-85
2022/11/30 04:53:13;;;;;;;12.43;7.88;;;11.20;52.50;;;;;;4938699;29;20431;-87
2022/11/30 04:55:39;;;;;;;13.45;8.85;;;11.00;55.70;;;;;;4938852;29;20027;-86
2022/11/30 04:58:05;;;;;;;12.85;7.70;;;11.40;54.30;;;;;;4938645;29;20028;-86
2022/11/30 05:00:31;;;;;;;13.38;8.18;;;11.60;53.20;;;;;;4938723;29;20029;-86
2022/11/30 05:02:57;;;;;;;14.00;8.23;;;11.70;53.20;;;;;;4938644;29;20023;-86
2022/11/30 05:05:23;;;;;;;14.13;8.52;;;11.90;52.90;;;;;;4938611;29;20028;-86
2022/11/30 05:07:58;;;;;;;14.45;8.90;;;11.80;52.40;;;;;;4938452;29;20023;-86
2022/11/30 05:10:25;;;;;;;12.75;8.05;;;11.80;53.10;;;;;;4938585;29;20449;-87
2022/11/30 05:12:52;;;;;;;12.95;8.32;;;11.90;53.10;;;;;;4939302;29;20019;-87
2022/11/30 05:15:17;;;;;;;13.93;8.82;;;11.20;53.30;;;;;;4938512;29;20378;-87
2022/11/30 05:17:43;;;;;;;11.90;8.18;;;11.00;55.00;;;;;;4938543;29;20023;-94
2022/11/30 05:20:09;;;;;;;14.95;9.77;;;10.80;54.70;;;;;;4938248;28;20042;-89
2022/11/30 05:22:35;;;;;;;15.80;9.95;;;10.80;54.20;;;;;;4941303;29;20023;-87
2022/11/30 05:25:03;;;;;;;14.32;8.63;;;10.80;54.10;;;;;;4942159;29;20034;-86
2022/11/30 05:27:29;;;;;;;14.45;8.73;;;10.50;54.50;;;;;;4941715;29;20039;-85
2022/11/30 05:29:54;;;;;;;15.55;9.07;;;10.80;55.30;;;;;;4941644;29;20031;-85
2022/11/30 05:32:20;;;;;;;13.10;8.60;;;11.20;54.70;;;;;;4941696;29;20078;-84
2022/11/30 05:34:46;;;;;;;13.85;8.77;;;11.70;53.30;;;;;;4941959;29;20027;-85
2022/11/30 05:37:11;;;;;;;12.85;8.13;;;11.70;53.50;;;;;;4942616;29;20411;-86
2022/11/30 05:39:37;;;;;;;25.35;13.82;;;11.80;53.10;;;;;;4941541;29;20059;-91
2022/11/30 05:42:03;;;;;;;17.30;11.00;;;10.80;54.60;;;;;;4941069;29;20066;-91
2022/11/30 05:44:28;;;;;;;16.88;11.02;;;10.40;54.30;;;;;;4941841;29;20023;-90
2022/11/30 05:46:54;;;;;;;19.95;12.63;;;10.40;54.90;;;;;;4941498;29;20430;-89
2022/11/30 05:49:20;;;;;;;18.02;11.43;;;10.80;54.70;;;;;;4941344;29;20045;-88
2022/11/30 05:51:46;;;;;;;14.90;9.00;;;10.80;53.60;;;;;;4941714;29;20019;-95
2022/11/30 05:54:11;;;;;;;14.75;9.13;;;11.10;53.80;;;;;;4941360;29;20067;-86
2022/11/30 05:56:37;;;;;;;20.98;13.35;;;11.70;53.30;;;;;;4941085;29;20051;-93
2022/11/30 05:59:03;;;;;;;16.90;10.38;;;11.90;53.30;;;;;;4941487;29;20035;-87
2022/11/30 06:01:29;;;;;;;19.85;11.15;;;12.10;53.30;;;;;;4941418;29;20019;-96
2022/11/30 06:03:55;;;;;;;19.50;12.63;;;12.40;53.00;;;;;;4941361;29;20030;-86
2022/11/30 06:06:22;;;;;;;11.60;6.47;;;12.50;51.90;;;;;;4941305;29;20434;-92
2022/11/30 06:08:48;;;;;;;16.30;10.80;;;11.50;50.20;;;;;;4941014;29;20482;-84
2022/11/30 06:11:15;;;;;;;18.15;11.52;;;11.30;54.10;;;;;;4941724;29;20034;-85
2022/11/30 06:13:41;;;;;;;20.13;12.20;;;11.60;54.60;;;;;;4940982;29;20023;-91
2022/11/30 06:16:19;;;;;;;17.20;11.68;;;12.10;53.40;;;;;;4940808;29;20033;-85
2022/11/30 06:18:45;;;;;;;22.38;13.13;;;12.40;53.00;;;;;;4940949;29;20082;-84
2022/11/30 06:21:11;;;;;;;21.63;11.10;;;12.50;53.00;;;;;;4940292;29;20023;-85
2022/11/30 06:23:37;;;;;;;17.70;11.13;;;12.60;52.50;;;;;;4940741;29;20030;-88
2022/11/30 06:26:08;;;;;;;18.60;10.23;;;12.40;52.70;;;;;;4940606;29;20066;-88
2022/11/30 06:28:34;;;;;;;10.38;6.55;;;12.10;52.90;;;;;;4940573;29;20039;-85
2022/11/30 06:31:02;;;;;;;10.73;6.50;;;11.60;52.10;;;;;;4940007;28;20034;-86
2022/11/30 06:34:38;;;;;;;11.80;7.43;;;11.90;52.30;;;;;;5090591;27;20409;-87
2022/11/30 06:37:04;;;;;;;11.80;6.70;;;12.50;52.90;;;;;;4720252;28;10000341;-85
2022/11/30 06:39:30;;;;;;;12.13;7.25;;;12.80;53.00;;;;;;5052950;28;20111;-85
2022/11/30 06:41:55;;;;;;;14.82;8.35;;;13.10;52.00;;;;;;5061219;28;20020;-86
2022/11/30 06:44:21;;;;;;;11.52;8.18;;;13.00;51.60;;;;;;5071044;28;20122;-85
2022/11/30 06:46:54;;;;;;;11.02;7.35;;;13.00;52.20;;;;;;5071052;28;20120;-85
2022/11/30 06:49:21;;;;;;;11.38;7.18;;;13.10;52.40;;;;;;5069379;28;20023;-83
2022/11/30 06:51:46;;;;;;;10.00;6.13;;;13.10;52.20;;;;;;5069246;28;20021;-84
2022/11/30 06:54:12;;;;;;;13.00;7.70;;;13.20;51.00;;;;;;5059055;28;20126;-85
2022/11/30 06:56:38;;;;;;;10.85;6.95;;;12.90;51.10;;;;;;5049379;28;20024;-85
2022/11/30 06:59:03;;;;;;;10.65;6.90;;;12.30;51.80;;;;;;5049461;28;20025;-82
2022/11/30 07:01:29;;;;;;;10.30;6.00;;;12.50;52.70;;;;;;5051408;28;20017;-85
2022/11/30 07:03:55;;;;;;;10.20;6.18;;;12.70;51.80;;;;;;5060985;28;20018;-84
2022/11/30 07:06:20;;;;;;;11.55;6.60;;;12.30;52.70;;;;;;5055963;28;20111;-84
2022/11/30 07:08:46;;;;;;;10.48;7.25;;;12.30;53.30;;;;;;5069668;28;20020;-87
2022/11/30 07:11:12;;;;;;;10.23;6.38;;;12.70;52.70;;;;;;5069708;28;20025;-86
2022/11/30 07:13:38;;;;;;;9.85;6.45;;;12.60;52.60;;;;;;5069743;28;20078;-84
2022/11/30 07:16:05;;;;;;;10.20;6.60;;;12.90;52.30;;;;;;5069019;28;20355;-84
2022/11/30 07:18:34;;;;;;;11.50;7.20;;;13.20;52.90;;;;;;5069264;28;20028;-91
2022/11/30 07:21:01;;;;;;;11.57;6.75;;;13.10;52.90;;;;;;5069152;28;20017;-86
2022/11/30 07:26:11;;;;;;;10.80;6.45;;;12.50;52.50;;;;;;5070899;28;20162;-90
2022/11/30 07:28:42;;;;;;;9.95;5.30;;;13.00;52.50;;;;;;5069458;28;20475;-84
2022/11/30 07:31:23;;;;;;;11.40;5.78;;;13.00;49.20;;;;;;5069167;28;20091;-91
2022/11/30 07:33:49;;;;;;;;;;;12.90;51.10;;;;;;5069508;28;20483;-84
2022/11/30 07:36:17;;;;;;;16.70;12.88;;;13.30;51.40;;;;;;5069195;28;19904;-84
2022/11/30 07:38:42;;;;;;;12.07;7.97;;;13.70;51.50;;;;;;5068945;28;20028;-85
2022/11/30 07:41:09;;;;;;;11.35;6.97;;;14.00;50.60;;;;;;5068618;28;20022;-83
2022/11/30 07:43:35;;;;;;;9.43;6.35;;;13.80;50.00;;;;;;5068462;28;20021;-84
2022/11/30 07:46:01;;;;;;;11.98;7.53;;;13.70;51.00;;;;;;5047003;28;20032;-83
2022/11/30 07:48:27;;;;;;;11.75;6.90;;;13.40;49.00;;;;;;5035278;28;20105;-83
2022/11/30 07:50:53;;;;;;;10.95;6.90;;;13.50;48.90;;;;;;5037307;28;20021;-84
2022/11/30 07:53:18;;;;;;;10.80;6.25;;;13.40;49.60;;;;;;5054640;28;20036;-84
2022/11/30 07:55:44;;;;;;;10.23;6.43;;;13.30;50.70;;;;;;5055060;28;20447;-84
2022/11/30 07:58:10;;;;;;;10.98;6.25;;;13.60;50.70;;;;;;5055252;28;20033;-84
2022/11/30 08:00:37;;;;;;;9.25;5.95;;;13.90;50.20;;;;;;5053070;28;20106;-86
2022/11/30 08:03:03;;;;;;;9.70;6.03;;;13.90;49.20;;;;;;5054888;28;20162;-86
2022/11/30 08:05:29;;;;;;;9.70;6.15;;;13.70;49.80;;;;;;5054774;28;20017;-83
2022/11/30 08:07:55;;;;;;;9.40;5.65;;;13.80;50.00;;;;;;5044921;28;20375;-85
2022/11/30 08:10:22;;;;;;;9.80;5.72;;;14.00;49.80;;;;;;5055373;28;20021;-87
2022/11/30 08:12:48;;;;;;;9.40;5.70;;;14.00;49.10;;;;;;5074877;28;20025;-83
2022/11/30 08:15:15;;;;;;;8.43;5.75;;;13.80;49.70;;;;;;5063565;28;20054;-84
2022/11/30 08:17:41;;;;;;;10.50;5.80;;;13.90;49.70;;;;;;5060751;28;20063;-87
2022/11/30 08:20:08;;;;;;;9.88;6.10;;;14.10;49.30;;;;;;5035271;28;20104;-86
2022/11/30 08:22:34;;;;;;;10.57;7.07;;;14.30;47.60;;;;;;5053171;28;20372;-86
2022/11/30 08:25:01;;;;;;;11.95;7.60;;;14.10;47.30;;;;;;5042758;28;20033;-86
2022/11/30 08:27:26;;;;;;;9.57;5.90;;;14.10;48.40;;;;;;5054398;28;20017;-85
2022/11/30 08:29:52;;;;;;;10.90;6.22;;;14.30;48.20;;;;;;5046835;28;20021;-84
2022/11/30 08:32:18;;;;;;;8.98;5.53;;;14.20;48.90;;;;;;5045915;28;20014;-85
2022/11/30 08:34:44;;;;;;;10.73;6.53;;;14.10;48.50;;;;;;5046103;28;20049;-85
2022/11/30 08:37:09;;;;;;;12.40;6.82;;;14.20;48.30;;;;;;5034125;28;20128;-83
2022/11/30 08:39:35;;;;;;;10.80;6.97;;;14.00;47.80;;;;;;4703768;28;9999988;-86
2022/11/30 08:42:01;;;;;;;13.05;7.07;;;13.90;49.10;;;;;;5053813;28;20048;-85
2022/11/30 08:44:28;;;;;;;10.27;6.40;;;13.90;48.80;;;;;;5040451;28;20468;-85
2022/11/30 08:46:54;;;;;;;13.40;8.40;;;14.30;50.60;;;;;;5053986;28;20036;-86
2022/11/30 08:49:21;;;;;;;13.07;7.90;;;14.60;48.50;;;;;;5051857;28;20028;-85
2022/11/30 08:51:48;;;;;;;12.07;7.35;;;15.10;48.40;;;;;;5052724;28;20363;-86
2022/11/30 08:54:13;;;;;;;12.07;7.07;;;15.30;49.60;;;;;;5053837;28;20032;-85
2022/11/30 08:56:39;;;;;;;11.40;7.40;;;15.60;48.70;;;;;;5054123;28;20016;-85
2022/11/30 08:59:05;;;;;;;24.88;14.98;;;15.70;47.80;;;;;;5053064;28;20036;-85
2022/11/30 09:01:30;;;;;;;21.05;10.98;;;15.20;46.80;;;;;;5052746;28;20024;-85
2022/11/30 09:03:56;;;;;;;18.55;12.50;;;15.30;47.10;;;;;;5054476;28;20021;-85
2022/11/30 09:06:28;;;;;;;12.80;8.60;;;15.90;47.70;;;;;;5054864;28;20021;-84
2022/11/30 09:08:56;;;;;;;13.55;8.88;;;16.30;46.20;;;;;;5053270;28;20033;-86
2022/11/30 09:11:24;;;;;;;9.73;6.10;;;16.60;47.10;;;;;;5053638;28;20021;-87
2022/11/30 09:13:53;;;;;;;9.75;6.03;;;16.60;45.00;;;;;;5054698;28;20116;-85
2022/11/30 09:16:19;;;;;;;14.30;12.85;;;16.40;45.30;;;;;;5054629;28;20066;-85
2022/11/30 09:18:46;;;;;;;8.13;5.22;;;16.30;45.60;;;;;;5053494;28;20032;-85
2022/11/30 09:21:14;;;;;;;8.73;5.80;;;16.30;46.50;;;;;;5053487;28;20017;-85
2022/11/30 09:23:41;;;;;;;41.58;22.48;;;16.30;45.50;;;;;;5054382;28;20116;-85
2022/11/30 09:26:10;;;;;;;10.07;6.15;;;16.40;45.40;;;;;;5053270;28;20021;-93
2022/11/30 09:32:38;;;;;;;;;;;;;;;;;;;;;
2022/11/30 09:35:21;;;;;;;7.50;4.72;;;15.80;45.40;;;;;;5053293;28;20033;-85
2022/11/30 09:38:25;;;;;;;7.78;4.75;;;15.40;46.00;;;;;;5052397;28;20021;-84
2022/11/30 09:40:56;;;;;;;7.93;4.70;;;15.30;46.10;;;;;;5054090;28;20029;-85
2022/11/30 09:43:33;;;;;;;8.35;5.43;;;15.10;46.10;;;;;;5053061;28;20021;-85
2022/11/30 09:46:03;;;;;;;10.80;5.80;;;15.20;47.50;;;;;;5069364;28;20029;-85
2022/11/30 09:48:45;;;;;;;11.93;5.55;;;15.40;47.60;;;;;;5053747;28;20024;-92
2022/11/30 09:51:17;;;;;;;9.00;4.75;;;14.90;46.70;;;;;;5069653;28;20083;-85
2022/11/30 09:53:50;;;;;;;9.38;5.30;;;14.80;47.10;;;;;;5052684;28;20373;-84
2022/11/30 09:56:33;;;;;;;8.85;5.68;;;15.10;46.20;;;;;;5052832;28;20021;-85
2022/11/30 09:59:05;;;;;;;9.27;5.72;;;15.20;46.20;;;;;;5053128;28;20037;-85
2022/11/30 10:01:33;;;;;;;12.55;6.05;;;15.50;48.20;;;;;;5052408;28;20375;-86
2022/11/30 10:04:00;;;;;;;10.13;6.25;;;15.60;46.00;;;;;;5053035;28;20036;-86
2022/11/30 10:06:40;;;;;;;11.70;5.90;;;15.50;45.90;;;;;;5052644;28;20048;-86
2022/11/30 10:09:11;;;;;;;11.18;5.93;;;15.50;46.40;;;;;;5052651;28;20021;-87
2022/11/30 10:19:26;;;;;;;9.88;5.50;;;16.40;47.40;;;;;;4953744;29;20027;-92
2022/11/30 10:43:14;;;;;;;6.18;3.85;;;15.60;46.80;;;;;;4841020;29;20178;-85
2022/11/30 10:45:45;;;;;;;7.07;3.92;;;15.70;46.30;;;;;;4825550;29;20139;-85
2022/11/30 10:48:29;;;;;;;7.57;4.45;;;16.00;46.00;;;;;;4840943;29;20045;-85
2022/11/30 10:50:55;;;;;;;6.70;4.38;;;16.20;45.10;;;;;;4839433;29;20041;-84
2022/11/30 10:53:21;;;;;;;7.55;4.32;;;16.10;44.80;;;;;;4934506;29;20047;-84
2022/11/30 10:55:57;;;;;;;7.03;4.38;;;16.00;45.60;;;;;;4934196;29;20122;-85
2022/11/30 10:58:35;;;;;;;7.53;4.35;;;16.00;45.10;;;;;;4933848;29;20043;-83
2022/11/30 11:01:05;;;;;;;8.05;4.60;;;15.70;45.50;;;;;;4934203;29;20486;-84
2022/11/30 11:03:31;;;;;;;7.82;4.68;;;15.10;46.40;;;;;;4933778;29;20039;-84
2022/11/30 11:06:14;;;;;;;7.50;4.18;;;14.90;46.70;;;;;;4934300;29;20418;-84
2022/11/30 11:08:41;;;;;;;7.50;4.50;;;15.20;47.10;;;;;;4934205;29;20119;-85
2022/11/30 11:11:37;;;;;;;7.82;4.80;;;15.50;47.00;;;;;;4964370;28;20442;-86
2022/11/30 11:14:25;;;;;;;7.90;4.65;;;15.70;46.10;;;;;;5064980;28;20045;-85
2022/11/30 11:17:03;;;;;;;8.88;5.15;;;15.90;45.80;;;;;;5051957;28;20025;-84
2022/11/30 11:19:43;;;;;;;7.70;4.80;;;15.90;46.40;;;;;;5052702;28;20068;-85
2022/11/30 11:22:23;;;;;;;7.25;4.75;;;15.80;46.10;;;;;;5055377;28;20036;-85
2022/11/30 11:25:06;;;;;;;8.77;5.18;;;15.80;46.20;;;;;;5055512;28;20037;-85
2022/11/30 11:27:32;;;;;;;7.25;4.68;;;15.90;46.20;;;;;;5055628;28;20032;-84
2022/11/30 11:30:15;;;;;;;6.88;4.43;;;15.80;45.80;;;;;;5056645;28;20037;-85
2022/11/30 11:33:16;;;;;;;9.18;5.15;;;15.80;46.60;;;;;;5055363;28;20079;-85
2022/11/30 11:35:46;;;;;;;9.02;4.75;;;16.10;46.60;;;;;;5055443;28;20502;-86
2022/11/30 11:38:19;;;;;;;7.40;5.25;;;15.80;45.50;;;;;;5055194;28;20044;-84
2022/11/30 11:40:55;;;;;;;9.30;5.35;;;15.40;46.40;;;;;;5071905;28;20086;-85
2022/11/30 11:43:24;;;;;;;8.27;5.13;;;15.20;46.20;;;;;;5072048;28;20021;-84
2022/11/30 11:45:56;;;;;;;8.57;5.38;;;15.30;47.00;;;;;;5055170;28;20017;-84
2022/11/30 11:48:30;;;;;;;7.28;4.97;;;15.60;47.00;;;;;;5056115;28;20029;-85
2022/11/30 11:51:02;;;;;;;8.35;5.22;;;16.00;46.20;;;;;;5071638;28;20112;-84
2022/11/30 11:53:44;;;;;;;8.45;5.57;;;15.90;45.90;;;;;;5055030;28;20033;-85
2022/11/30 11:56:31;;;;;;;8.82;5.45;;;15.80;47.00;;;;;;5071450;28;20043;-85
2022/11/30 11:59:18;;;;;;;14.38;5.88;;;15.80;47.00;;;;;;5054873;28;20025;-84
2022/11/30 12:01:56;;;;;;;7.93;5.10;;;15.50;46.80;;;;;;5054882;28;20021;-85
2022/11/30 12:04:45;;;;;;;8.38;5.47;;;15.40;47.30;;;;;;5054770;28;20079;-85
2022/11/30 12:07:30;;;;;;;9.63;5.65;;;15.40;47.10;;;;;;5054741;28;20021;-84
2022/11/30 12:10:04;;;;;;;9.93;5.78;;;15.60;47.20;;;;;;5055666;28;20029;-85
2022/11/30 12:12:29;;;;;;;9.38;5.95;;;15.90;47.50;;;;;;5071455;28;20025;-85
2022/11/30 12:14:56;;;;;;;10.88;5.72;;;16.00;47.00;;;;;;5054562;28;20120;-85
2022/11/30 12:17:34;;;;;;;10.05;6.28;;;15.70;46.80;;;;;;5054454;28;20036;-85
2022/11/30 12:19:59;;;;;;;9.93;6.05;;;15.60;47.10;;;;;;5055977;28;20111;-85
2022/11/30 12:22:47;;;;;;;9.52;5.50;;;15.80;46.90;;;;;;5070952;28;20112;-87
2022/11/30 12:25:24;;;;;;;8.65;5.72;;;15.90;47.00;;;;;;5054481;28;20399;-85
2022/11/30 12:27:57;;;;;;;10.00;6.05;;;15.70;47.10;;;;;;5054226;28;20036;-85
2022/11/30 12:30:46;;;;;;;9.55;6.07;;;15.80;46.10;;;;;;5054303;28;20040;-84
2022/11/30 12:33:21;;;;;;;11.45;5.82;;;15.80;47.10;;;;;;5054118;28;20041;-85
2022/11/30 12:37:21;;;;;;;9.10;6.10;;;16.10;46.30;;;;;;5087453;27;1324019;-85
2022/11/30 12:40:01;;;;;;;13.55;8.23;;;16.40;46.10;;;;;;5093284;28;20043;-85
2022/11/30 12:42:36;;;;;;;23.40;12.00;;;16.70;46.40;;;;;;5093075;28;20030;-86
2022/11/30 12:45:23;;;;;;;16.40;8.90;;;16.80;45.60;;;;;;5093210;28;20490;-84
2022/11/30 12:48:21;;;;;;;8.70;5.72;;;16.50;45.90;;;;;;5096757;28;20036;-85
2022/11/30 12:51:07;;;;;;;9.63;5.40;;;16.60;46.90;;;;;;5066021;28;20024;-85
2022/11/30 12:53:47;;;;;;;8.10;5.25;;;16.70;45.90;;;;;;5072982;28;20090;-85
2022/11/30 12:56:22;;;;;;;9.68;6.05;;;16.90;45.80;;;;;;5072660;28;20054;-86
2022/11/30 12:59:05;;;;;;;9.18;5.93;;;17.10;46.60;;;;;;5072820;28;20056;-85
2022/11/30 13:01:47;;;;;;;8.48;5.55;;;17.20;45.70;;;;;;5090631;28;20107;-86
2022/11/30 13:07:00;;;;;;;10.63;5.35;;;16.80;45.10;;;;;;5086565;27;1328715;-85
2022/11/30 13:09:34;;;;;;;9.43;5.88;;;16.80;45.80;;;;;;5093020;28;20457;-85
2022/11/30 13:12:11;;;;;;;9.93;6.03;;;16.80;46.20;;;;;;5093109;28;20115;-86
2022/11/30 13:14:38;;;;;;;12.57;6.80;;;16.70;46.30;;;;;;5093197;28;20026;-86
2022/11/30 13:17:15;;;;;;;11.60;6.68;;;16.70;46.20;;;;;;5110834;28;20024;-85
2022/11/30 13:20:06;;;;;;;10.80;7.05;;;16.60;46.50;;;;;;5093004;28;20074;-86
2022/11/30 13:22:54;;;;;;;11.32;6.78;;;16.40;46.00;;;;;;5092931;28;20067;-85
2022/11/30 13:25:32;;;;;;;13.88;6.97;;;16.30;46.60;;;;;;5092950;28;20036;-85
2022/11/30 13:28:12;;;;;;;11.48;7.13;;;16.30;46.90;;;;;;5092902;28;20031;-86
2022/11/30 13:31:18;;;;;;;11.93;6.93;;;16.40;46.40;;;;;;5093051;28;20406;-86
2022/11/30 13:33:55;;;;;;;10.55;6.85;;;16.60;46.50;;;;;;5093309;28;20020;-85